ěÝzenÝ letovÚho provozu ╚eskÚ republiky
Letiste: LKLN Aktualizace: 07.07.2020 14:27:24  UTC
 METAR LKLN 07.07. 14:30 ...
METAR LKLN 071430Z AUTO VRB05KT 9999 BKN067 19/04 Q1019=